Time;durP1;ratioP1;P1;durP2;ratioP2;P2;SDS_P1;SDS_P2;PMS_P1;PMS_P2;Temp;Humidity;BMP_temperature;BMP_pressure;BME280_temperature;BME280_humidity;BME280_pressure;Samples;Min_cycle;Max_cycle;Signal;HPM_P1;HPM_P2
2023/08/07 00:00:20;;;;;;;1.60;1.48;;;;;;;8.57;100.00;93052.50;2090276;28;20549;-82
2023/08/07 00:01:21;;;;;;;5.35;1.50;;;;;;;8.62;100.00;93047.88;2098566;28;20166;-83
2023/08/07 00:02:22;;;;;;;1.95;1.35;;;;;;;8.87;100.00;93045.59;2106119;28;20024;-82
2023/08/07 00:03:23;;;;;;;2.85;1.40;;;;;;;9.00;100.00;93043.06;2106442;28;20016;-81
2023/08/07 00:04:24;;;;;;;3.45;1.25;;;;;;;8.95;100.00;93048.84;2106191;28;20469;-83
2023/08/07 00:05:25;;;;;;;1.30;1.13;;;;;;;8.91;100.00;93043.59;2096819;28;20399;-82
2023/08/07 00:06:27;;;;;;;2.70;1.45;;;;;;;8.73;100.00;93045.78;2098262;28;20435;-81
2023/08/07 00:07:28;;;;;;;1.77;1.35;;;;;;;8.75;100.00;93049.56;2100205;28;20473;-82
2023/08/07 00:08:30;;;;;;;3.05;1.50;;;;;;;8.62;100.00;93058.53;2098259;28;20024;-82
2023/08/07 00:09:31;;;;;;;1.38;1.10;;;;;;;8.78;100.00;93050.66;2106362;28;20128;-81
2023/08/07 00:10:32;;;;;;;2.83;1.55;;;;;;;8.87;100.00;93050.13;2097507;28;20028;-83
2023/08/07 00:11:35;;;;;;;4.70;1.58;;;;;;;8.84;100.00;93054.38;2090084;28;20055;-81
2023/08/07 00:12:39;;;;;;;1.73;1.45;;;;;;;8.88;100.00;93046.34;2093614;28;20032;-83
2023/08/07 00:13:40;;;;;;;4.85;1.90;;;;;;;8.92;100.00;93050.44;2094482;28;20540;-81
2023/08/07 00:14:41;;;;;;;5.97;1.45;;;;;;;8.77;100.00;93043.81;2096347;28;20102;-83
2023/08/07 00:15:41;;;;;;;3.05;1.58;;;;;;;8.66;100.00;93046.66;2097567;28;20101;-81
2023/08/07 00:16:44;;;;;;;2.42;1.33;;;;;;;8.75;100.00;93051.47;2098148;28;20027;-83
2023/08/07 00:17:45;;;;;;;2.08;1.50;;;;;;;8.76;100.00;93050.31;2094688;28;20120;-83
2023/08/07 00:18:46;;;;;;;1.90;1.27;;;;;;;9.01;100.00;93048.00;2098122;28;20177;-82
2023/08/07 00:19:47;;;;;;;2.28;1.50;;;;;;;8.88;100.00;93049.00;2097892;28;20029;-83
2023/08/07 00:20:48;;;;;;;3.00;1.42;;;;;;;8.85;100.00;93055.13;2103495;28;20067;-81
2023/08/07 00:21:49;;;;;;;3.17;1.75;;;;;;;8.82;100.00;93044.13;2106209;28;20055;-82
2023/08/07 00:22:50;;;;;;;2.85;1.20;;;;;;;8.85;100.00;93047.88;2105160;28;20056;-82
2023/08/07 00:23:51;;;;;;;3.30;1.70;;;;;;;8.90;100.00;93049.31;2106774;28;20027;-82
2023/08/07 00:24:52;;;;;;;2.05;1.30;;;;;;;9.04;100.00;93057.84;2106381;28;20599;-82
2023/08/07 00:25:53;;;;;;;2.58;1.50;;;;;;;8.96;100.00;93053.81;2097825;28;20046;-82
2023/08/07 00:26:55;;;;;;;3.05;1.50;;;;;;;8.90;100.00;93049.31;2098191;28;20503;-81
2023/08/07 00:27:56;;;;;;;1.88;1.48;;;;;;;8.77;100.00;93043.81;2097596;28;20063;-83
2023/08/07 00:28:56;;;;;;;3.33;1.60;;;;;;;8.78;100.00;93048.00;2106143;28;20028;-82
2023/08/07 00:29:58;;;;;;;2.67;1.45;;;;;;;8.80;100.00;93049.09;2106292;28;20039;-81
2023/08/07 00:30:59;;;;;;;3.42;1.40;;;;;;;8.66;100.00;93051.25;2105565;28;20069;-82
2023/08/07 00:32:00;;;;;;;2.03;1.75;;;;;;;8.71;100.00;93045.44;2081780;28;20485;-83
2023/08/07 00:33:02;;;;;;;2.03;1.25;;;;;;;8.73;100.00;93046.53;2097867;28;20025;-83
2023/08/07 00:34:04;;;;;;;2.15;1.30;;;;;;;8.74;100.00;93047.31;2097908;28;20027;-82
2023/08/07 00:35:05;;;;;;;4.25;1.35;;;;;;;8.68;100.00;93051.59;2090079;28;20025;-83
2023/08/07 00:36:06;;;;;;;3.47;1.42;;;;;;;8.69;100.00;93053.88;2105785;28;20604;-82
2023/08/07 00:37:07;;;;;;;2.47;1.40;;;;;;;8.71;100.00;93050.78;2106556;28;20344;-81
2023/08/07 00:38:08;;;;;;;3.75;1.30;;;;;;;8.63;100.00;93052.03;2097568;28;20059;-82
2023/08/07 00:39:09;;;;;;;2.38;1.38;;;;;;;8.61;100.00;93057.78;2097613;28;20031;-81
2023/08/07 00:40:10;;;;;;;3.50;1.60;;;;;;;8.60;100.00;93050.19;2106533;28;20024;-82
2023/08/07 00:41:11;;;;;;;4.20;1.50;;;;;;;8.52;100.00;93052.97;2105799;28;20034;-81
2023/08/07 00:42:12;;;;;;;2.65;1.63;;;;;;;8.55;100.00;93057.47;2090652;28;20524;-82
2023/08/07 00:43:13;;;;;;;2.15;1.33;;;;;;;8.63;100.00;93060.78;2102001;28;20024;-82
2023/08/07 00:44:14;;;;;;;1.45;1.35;;;;;;;8.59;100.00;93054.75;2104434;28;20028;-84
2023/08/07 00:45:17;;;;;;;2.92;1.48;;;;;;;8.53;100.00;93051.81;2089896;28;20047;-83
2023/08/07 00:46:18;;;;;;;2.53;1.38;;;;;;;8.60;100.00;93055.50;2104075;28;20545;-82
2023/08/07 00:47:20;;;;;;;2.50;1.42;;;;;;;8.58;100.00;93058.59;2089708;28;20022;-82
2023/08/07 00:48:21;;;;;;;1.77;1.50;;;;;;;8.57;100.00;93054.41;2089782;28;20143;-82
2023/08/07 00:49:22;;;;;;;1.90;1.65;;;;;;;8.65;100.00;93058.50;2109360;28;20066;-83
2023/08/07 00:50:24;;;;;;;3.65;1.60;;;;;;;8.83;100.00;93060.88;2106455;28;20437;-83
2023/08/07 00:51:25;;;;;;;2.97;1.50;;;;;;;8.70;100.00;93065.28;2097133;28;20025;-83
2023/08/07 00:52:26;;;;;;;2.38;1.25;;;;;;;8.56;100.00;93066.25;2090523;28;20343;-82
2023/08/07 00:53:27;;;;;;;2.10;1.38;;;;;;;8.63;100.00;93066.13;2092189;28;20059;-84
2023/08/07 00:54:29;;;;;;;1.92;1.67;;;;;;;8.57;100.00;93060.50;2097582;28;20073;-82
2023/08/07 00:55:30;;;;;;;3.45;1.70;;;;;;;8.43;100.00;93052.72;2114981;28;20031;-81
2023/08/07 00:56:32;;;;;;;3.67;1.67;;;;;;;8.51;100.00;93056.03;2105834;28;20024;-82
2023/08/07 00:57:33;;;;;;;3.00;1.40;;;;;;;8.49;100.00;93048.44;2091405;28;20031;-82
2023/08/07 00:58:35;;;;;;;4.63;1.50;;;;;;;8.56;100.00;93052.91;2098014;28;20064;-82
2023/08/07 00:59:36;;;;;;;2.92;1.60;;;;;;;8.67;100.00;93052.75;2102946;28;20012;-82
2023/08/07 01:00:37;;;;;;;5.93;1.50;;;;;;;8.62;100.00;93058.53;2098110;28;20036;-82
2023/08/07 01:01:38;;;;;;;3.78;1.50;;;;;;;8.80;100.00;93056.34;2105572;28;20050;-82
2023/08/07 01:02:39;;;;;;;1.95;1.42;;;;;;;8.72;100.00;93052.28;2105497;28;20023;-82
2023/08/07 01:03:40;;;;;;;2.63;1.48;;;;;;;8.80;100.00;93054.44;2097918;28;20028;-82
2023/08/07 01:04:41;;;;;;;2.25;1.50;;;;;;;8.80;100.00;93048.34;2097431;28;20032;-82
2023/08/07 01:05:42;;;;;;;3.30;1.70;;;;;;;8.61;100.00;93054.38;2097937;28;20024;-82
2023/08/07 01:06:43;;;;;;;1.75;1.42;;;;;;;8.56;100.00;93055.59;2105782;28;20028;-82
2023/08/07 01:07:44;;;;;;;1.77;1.40;;;;;;;8.50;100.00;93067.84;2105920;28;20110;-83
2023/08/07 01:08:46;;;;;;;3.92;1.67;;;;;;;8.48;100.00;93051.53;2097690;28;20026;-81
2023/08/07 01:09:47;;;;;;;1.85;1.60;;;;;;;8.53;100.00;93051.81;2095545;28;20495;-82
2023/08/07 01:11:15;;;;;;;1.92;1.50;;;;;;;8.51;100.00;93053.34;2089362;28;20472;-82
2023/08/07 01:12:25;;;;;;;2.90;1.30;;;;;;;8.54;100.00;93053.31;2097046;28;20073;-82
2023/08/07 01:13:34;;;;;;;2.40;1.58;;;;;;;8.60;100.00;93058.19;2100033;28;20017;-83
2023/08/07 01:14:55;;;;;;;4.10;1.63;;;;;;;8.71;100.00;93048.13;2097451;28;20020;-82
2023/08/07 01:16:01;;;;;;;4.47;1.30;;;;;;;8.67;100.00;93045.50;2095570;28;20025;-82
2023/08/07 01:17:06;;;;;;;4.40;1.70;;;;;;;8.65;100.00;93052.38;2098487;28;20038;-82
2023/08/07 01:18:07;;;;;;;2.00;1.50;;;;;;;8.71;100.00;93056.88;2097901;28;20024;-82
2023/08/07 01:19:22;;;;;;;3.50;1.88;;;;;;;8.75;100.00;93057.56;2089796;28;20112;-83
2023/08/07 01:20:23;;;;;;;2.78;1.67;;;;;;;8.79;100.00;93046.84;2085169;28;20030;-81
2023/08/07 01:21:25;;;;;;;1.92;1.48;;;;;;;8.78;100.00;93053.31;2095417;28;20078;-82
2023/08/07 01:22:26;;;;;;;4.28;1.70;;;;;;;8.73;100.00;93049.19;2097412;28;20040;-82
2023/08/07 01:23:27;;;;;;;2.67;1.40;;;;;;;8.75;100.00;93056.81;2096419;28;20103;-82
2023/08/07 01:24:28;;;;;;;3.15;1.50;;;;;;;8.64;100.00;93054.28;2089105;28;20029;-82
2023/08/07 01:25:29;;;;;;;2.20;1.75;;;;;;;8.61;100.00;93052.47;2081220;28;20052;-82
2023/08/07 01:26:36;;;;;;;4.35;1.70;;;;;;;8.55;100.00;93057.47;2089988;28;20028;-82
2023/08/07 01:27:44;;;;;;;2.25;1.58;;;;;;;8.58;100.00;93054.00;2089943;28;20021;-81
2023/08/07 01:29:21;;;;;;;1.75;1.40;;;;;;;8.77;100.00;93059.81;2099721;28;20048;-81
2023/08/07 01:30:38;;;;;;;3.45;1.60;;;;;;;8.93;100.00;93054.59;2089413;28;20072;-83
2023/08/07 01:31:41;;;;;;;2.72;1.42;;;;;;;8.98;100.00;93064.81;2097476;28;20307;-82
2023/08/07 01:32:57;;;;;;;2.90;1.50;;;;;;;8.79;100.00;93057.50;2097064;28;20028;-82
2023/08/07 01:34:03;;;;;;;2.33;1.50;;;;;;;8.66;100.00;93065.31;2093384;28;20555;-82
2023/08/07 01:35:05;;;;;;;4.40;1.70;;;;;;;8.65;100.00;93055.81;2089504;28;20074;-82
2023/08/07 01:36:08;;;;;;;4.43;1.73;;;;;;;8.63;100.00;93057.38;2090321;28;20021;-81
2023/08/07 01:37:12;;;;;;;3.83;1.80;;;;;;;8.55;100.00;93065.47;2097703;28;20101;-81
2023/08/07 01:38:14;;;;;;;7.13;1.75;;;;;;;8.51;100.00;93059.44;2102453;28;20020;-82
2023/08/07 01:39:17;;;;;;;2.53;1.30;;;;;;;8.55;100.00;93054.81;2105871;28;20465;-82
2023/08/07 01:40:20;;;;;;;4.65;1.73;;;;;;;8.58;100.00;93056.69;2098103;28;20036;-82
2023/08/07 01:41:22;;;;;;;2.85;1.33;;;;;;;8.81;100.00;93065.84;2089041;28;20029;-82
2023/08/07 01:42:23;;;;;;;2.63;1.52;;;;;;;8.76;100.00;93050.31;2089387;28;20558;-81
2023/08/07 01:43:24;;;;;;;2.47;1.48;;;;;;;8.54;100.00;93063.22;2097331;28;20032;-82
2023/08/07 01:44:25;;;;;;;3.85;1.52;;;;;;;8.73;100.00;93059.09;2088788;28;20021;-82
2023/08/07 01:45:28;;;;;;;2.65;1.60;;;;;;;8.67;100.00;93063.41;2081007;28;20017;-82
2023/08/07 01:46:29;;;;;;;4.85;1.45;;;;;;;8.62;100.00;93058.53;2085448;28;20035;-82
2023/08/07 01:47:31;;;;;;;2.30;1.13;;;;;;;8.86;100.00;93062.72;2089395;28;20031;-83
2023/08/07 01:48:32;;;;;;;4.50;1.70;;;;;;;8.57;100.00;93065.84;2095033;28;20020;-82
2023/08/07 01:49:33;;;;;;;3.55;1.42;;;;;;;8.60;100.00;93061.59;2088920;28;20115;-82
2023/08/07 01:50:35;;;;;;;1.92;1.40;;;;;;;8.62;100.00;93061.19;2088751;28;20055;-84
2023/08/07 01:51:36;;;;;;;1.50;1.33;;;;;;;8.57;100.00;93070.41;2089116;28;20424;-82
2023/08/07 01:52:37;;;;;;;2.38;1.48;;;;;;;8.58;100.00;93069.25;2081100;28;20029;-82
2023/08/07 01:53:38;;;;;;;3.83;1.40;;;;;;;8.50;100.00;93067.84;2088955;28;20056;-82
2023/08/07 01:54:39;;;;;;;1.73;1.30;;;;;;;8.47;100.00;93069.41;2095513;28;20059;-82
2023/08/07 01:55:40;;;;;;;2.35;1.45;;;;;;;8.30;100.00;93071.13;2090242;28;20036;-81
2023/08/07 01:56:42;;;;;;;3.55;1.60;;;;;;;8.26;100.00;93069.69;2097294;28;20531;-83
2023/08/07 01:57:43;;;;;;;4.80;1.50;;;;;;;8.17;100.00;93067.50;2097733;28;20039;-83
2023/08/07 01:58:44;;;;;;;2.88;1.45;;;;;;;8.06;100.00;93069.56;2096589;28;20774;-84
2023/08/07 01:59:45;;;;;;;3.72;1.75;;;;;;;8.20;100.00;93071.28;2088799;28;20053;-83
2023/08/07 02:00:46;;;;;;;3.42;1.50;;;;;;;8.41;100.00;93072.91;2089228;28;20029;-82
2023/08/07 02:01:49;;;;;;;7.82;1.90;;;;;;;8.28;100.00;93065.44;2086892;28;20021;-84
2023/08/07 02:02:50;;;;;;;3.72;1.90;;;;;;;8.18;100.00;93066.34;2105200;28;20469;-84
2023/08/07 02:03:51;;;;;;;3.70;1.40;;;;;;;8.08;100.00;93078.66;2095479;28;20062;-81
2023/08/07 02:04:52;;;;;;;3.13;1.60;;;;;;;8.29;100.00;93074.94;2080560;28;20021;-82
2023/08/07 02:05:53;;;;;;;2.58;1.45;;;;;;;8.33;100.00;93075.66;2088943;28;20106;-82
2023/08/07 02:06:54;;;;;;;2.35;1.30;;;;;;;8.47;100.00;93068.63;2094577;28;20047;-82
2023/08/07 02:08:01;;;;;;;3.75;1.50;;;;;;;8.25;100.00;93068.16;2088626;28;20029;-82
2023/08/07 02:09:02;;;;;;;4.50;1.75;;;;;;;8.21;100.00;93068.22;2089822;28;20029;-82
2023/08/07 02:10:03;;;;;;;1.98;1.50;;;;;;;8.16;100.00;93067.91;2097255;28;20040;-83
2023/08/07 02:11:04;;;;;;;2.92;1.35;;;;;;;8.21;100.00;93081.53;2088944;28;20526;-82
2023/08/07 02:12:06;;;;;;;3.95;1.20;;;;;;;8.28;100.00;93070.78;2088589;28;20020;-83
2023/08/07 02:13:07;;;;;;;2.67;1.27;;;;;;;8.14;100.00;93062.97;2088590;28;20020;-82
2023/08/07 02:14:08;;;;;;;2.17;1.30;;;;;;;8.26;100.00;93075.75;2088783;28;20119;-82
2023/08/07 02:15:09;;;;;;;2.65;1.55;;;;;;;8.08;100.00;93067.25;2089038;28;20028;-82
2023/08/07 02:16:10;;;;;;;2.75;1.67;;;;;;;7.98;100.00;93062.81;2081018;28;20470;-82
2023/08/07 02:17:11;;;;;;;2.42;1.75;;;;;;;7.99;100.00;93066.97;2095916;28;20016;-82
2023/08/07 02:18:12;;;;;;;2.50;1.30;;;;;;;7.88;100.00;93066.38;2105323;28;20028;-81
2023/08/07 02:19:13;;;;;;;2.47;1.50;;;;;;;8.19;100.00;93062.53;2098227;28;20399;-84
2023/08/07 02:20:14;;;;;;;3.83;1.52;;;;;;;8.03;100.00;93065.81;2092071;28;20536;-83
2023/08/07 02:22:23;;;;;;;;;;;;;;;7.78;100.00;93058.13;2148431;27;20117;-82
2023/08/07 02:23:24;;;;;;;3.40;1.50;;;;;;;7.71;100.00;93062.75;2129529;27;19911;-83
2023/08/07 02:24:25;;;;;;;2.30;1.50;;;;;;;7.63;100.00;93070.06;2121600;28;20047;-82
2023/08/07 02:25:26;;;;;;;3.33;1.63;;;;;;;7.66;100.00;93063.97;2134687;27;20033;-83
2023/08/07 02:26:27;;;;;;;1.85;1.20;;;;;;;7.64;100.00;93060.97;2121036;27;20031;-82
2023/08/07 02:27:28;;;;;;;2.53;1.38;;;;;;;7.71;100.00;93065.44;2121540;28;20485;-83
2023/08/07 02:28:37;;;;;;;2.25;1.60;;;;;;;7.58;100.00;93068.59;2125632;27;20094;-84
2023/08/07 02:29:38;;;;;;;2.75;1.42;;;;;;;7.62;100.00;93070.47;2122539;27;20027;-83
2023/08/07 02:30:39;;;;;;;2.22;1.20;;;;;;;7.75;100.00;93061.56;2121388;27;20080;-81
2023/08/07 02:31:45;;;;;;;2.63;1.40;;;;;;;7.77;100.00;93061.16;2124849;27;20110;-82
2023/08/07 02:32:46;;;;;;;1.95;1.40;;;;;;;7.68;100.00;93066.22;2113971;28;20032;-82
2023/08/07 02:33:47;;;;;;;2.92;1.60;;;;;;;7.65;100.00;93064.38;2131285;27;20029;-82
2023/08/07 02:34:48;;;;;;;4.15;1.50;;;;;;;7.68;100.00;93063.56;2132549;27;20027;-83
2023/08/07 02:35:50;;;;;;;2.03;1.27;;;;;;;7.79;100.00;93061.53;2130243;27;20462;-83
2023/08/07 02:36:51;;;;;;;3.30;1.65;;;;;;;7.71;100.00;93057.44;2123482;27;20082;-82
2023/08/07 02:37:52;;;;;;;2.25;1.40;;;;;;;7.82;100.00;93064.16;2113129;28;20051;-82
2023/08/07 02:38:53;;;;;;;2.45;1.83;;;;;;;7.89;100.00;93059.88;2112980;27;20027;-84
2023/08/07 02:39:54;;;;;;;3.90;1.55;;;;;;;7.75;100.00;93060.81;2128114;27;20031;-83
2023/08/07 02:40:55;;;;;;;4.13;1.50;;;;;;;7.78;100.00;93065.34;2112982;27;20478;-82
2023/08/07 02:41:56;;;;;;;2.33;1.45;;;;;;;7.68;100.00;93069.66;2111849;28;20051;-82
2023/08/07 02:42:57;;;;;;;3.15;1.10;;;;;;;7.65;100.00;93064.38;2107682;28;20039;-84
2023/08/07 02:43:58;;;;;;;2.80;1.40;;;;;;;7.55;100.00;93066.75;2112142;28;20122;-84
2023/08/07 02:44:59;;;;;;;3.13;1.48;;;;;;;7.43;100.00;93063.84;2112663;28;20098;-83
2023/08/07 02:46:00;;;;;;;3.47;1.45;;;;;;;7.40;100.00;93072.59;2121468;27;20028;-83
2023/08/07 02:47:01;;;;;;;6.07;1.98;;;;;;;7.41;100.00;93071.44;2118718;28;20043;-82
2023/08/07 02:48:02;;;;;;;3.38;1.63;;;;;;;7.56;100.00;93067.50;2112830;27;20081;-83
2023/08/07 02:49:05;;;;;;;2.63;1.67;;;;;;;7.58;100.00;93067.84;2129954;27;20422;-85
2023/08/07 02:50:06;;;;;;;1.88;1.50;;;;;;;7.68;100.00;93069.66;2116342;28;20025;-83
2023/08/07 02:51:07;;;;;;;3.60;1.63;;;;;;;7.86;100.00;93069.44;2108663;28;20067;-82
2023/08/07 02:52:08;;;;;;;2.47;1.20;;;;;;;7.80;100.00;93081.66;2110968;28;20051;-86
2023/08/07 02:53:09;;;;;;;3.55;1.83;;;;;;;7.79;100.00;93067.59;2104365;28;20436;-83
2023/08/07 02:54:10;;;;;;;2.58;1.55;;;;;;;7.64;100.00;93073.47;2104973;28;20516;-82
2023/08/07 02:55:11;;;;;;;2.88;1.27;;;;;;;7.72;100.00;93073.00;2104210;28;20044;-84
2023/08/07 02:56:12;;;;;;;3.10;1.70;;;;;;;7.88;100.00;93072.44;2104452;28;20594;-83
2023/08/07 02:57:14;;;;;;;2.78;1.42;;;;;;;7.75;100.00;93066.13;2111936;27;20096;-84
2023/08/07 02:58:15;;;;;;;2.38;1.40;;;;;;;7.89;100.00;93076.59;2109466;28;20058;-83
2023/08/07 02:59:16;;;;;;;2.92;1.35;;;;;;;7.75;100.00;93068.81;2096484;28;20029;-82
2023/08/07 03:00:17;;;;;;;1.58;1.48;;;;;;;7.74;100.00;93068.06;2100971;28;20103;-83
2023/08/07 03:01:19;;;;;;;2.50;1.35;;;;;;;7.83;100.00;93064.91;2104574;28;20039;-82
2023/08/07 03:02:20;;;;;;;1.50;1.20;;;;;;;7.85;100.00;93069.81;2104336;28;20105;-83
2023/08/07 03:03:21;;;;;;;1.75;1.52;;;;;;;7.94;100.00;93078.06;2112564;28;20135;-83
2023/08/07 03:04:22;;;;;;;3.20;1.80;;;;;;;7.81;100.00;93073.28;2112998;28;20458;-82
2023/08/07 03:05:23;;;;;;;3.75;1.60;;;;;;;7.87;100.00;93070.94;2120955;27;20047;-82
2023/08/07 03:06:24;;;;;;;2.22;1.52;;;;;;;7.75;100.00;93063.47;2121292;28;20031;-82
2023/08/07 03:07:26;;;;;;;2.70;1.48;;;;;;;7.66;100.00;93071.19;2112189;28;20467;-82
2023/08/07 03:08:27;;;;;;;2.15;1.92;;;;;;;7.63;100.00;93074.63;2101179;28;20044;-82
2023/08/07 03:09:28;;;;;;;2.15;1.65;;;;;;;7.74;100.00;93078.69;2112957;28;20038;-83
2023/08/07 03:10:30;;;;;;;2.38;1.75;;;;;;;7.77;100.00;93069.94;2104191;28;20026;-82
2023/08/07 03:11:31;;;;;;;2.45;1.60;;;;;;;7.74;100.00;93072.63;2112635;28;20032;-83
2023/08/07 03:12:32;;;;;;;6.57;1.73;;;;;;;7.74;100.00;93084.00;2107811;28;20024;-82
2023/08/07 03:13:33;;;;;;;2.50;1.70;;;;;;;7.85;100.00;93083.13;2104461;28;20024;-83
2023/08/07 03:14:34;;;;;;;1.73;1.63;;;;;;;7.85;100.00;93073.22;2112603;28;20077;-84
2023/08/07 03:15:35;;;;;;;4.30;1.50;;;;;;;7.90;100.00;93078.13;2104234;28;20028;-83
2023/08/07 03:16:36;;;;;;;3.60;1.80;;;;;;;7.88;100.00;93080.44;2104655;28;20048;-83
2023/08/07 03:17:37;;;;;;;2.65;1.48;;;;;;;7.92;100.00;93083.03;2112736;28;20019;-82
2023/08/07 03:18:38;;;;;;;3.50;1.90;;;;;;;8.02;100.00;93087.47;2112717;28;20047;-82
2023/08/07 03:19:42;;;;;;;3.45;1.67;;;;;;;8.02;100.00;93080.25;2113065;28;20027;-83
2023/08/07 03:20:43;;;;;;;1.98;1.20;;;;;;;7.93;100.00;93082.63;2106198;28;20043;-82
2023/08/07 03:21:44;;;;;;;2.13;1.60;;;;;;;7.95;100.00;93085.66;2104047;28;20045;-83
2023/08/07 03:22:45;;;;;;;3.88;1.73;;;;;;;7.93;100.00;93074.66;2117080;28;20070;-83
2023/08/07 03:23:46;;;;;;;4.93;1.50;;;;;;;7.73;100.00;93082.50;2100374;28;20028;-84
2023/08/07 03:24:48;;;;;;;5.55;2.25;;;;;;;8.10;100.00;93080.91;2099233;28;20025;-83
2023/08/07 03:25:50;;;;;;;2.30;1.60;;;;;;;8.05;100.00;93084.03;2105736;28;20529;-83
2023/08/07 03:26:51;;;;;;;2.80;1.60;;;;;;;8.04;100.00;93085.94;2105071;28;20035;-83
2023/08/07 03:27:52;;;;;;;1.70;1.60;;;;;;;8.04;100.00;93085.19;2105066;28;20035;-82
2023/08/07 03:28:53;;;;;;;3.38;1.52;;;;;;;7.97;100.00;93088.69;2110881;27;20028;-83
2023/08/07 03:29:54;;;;;;;3.45;1.70;;;;;;;7.98;100.00;93084.84;2113456;28;20023;-83
2023/08/07 03:30:55;;;;;;;2.42;1.30;;;;;;;7.86;100.00;93096.06;2114481;28;20123;-82
2023/08/07 03:31:56;;;;;;;2.28;1.40;;;;;;;7.94;100.00;93086.81;2116464;27;20031;-82
2023/08/07 03:32:57;;;;;;;3.17;1.42;;;;;;;8.00;100.00;93084.47;2121817;28;20028;-82
2023/08/07 03:33:58;;;;;;;3.17;2.10;;;;;;;7.89;100.00;93089.16;2101828;28;20052;-82
2023/08/07 03:34:59;;;;;;;2.70;1.45;;;;;;;7.86;100.00;93088.06;2107799;27;20032;-82
2023/08/07 03:36:00;;;;;;;3.38;1.77;;;;;;;7.91;100.00;93089.53;2108735;28;20400;-83
2023/08/07 03:37:01;;;;;;;3.13;1.50;;;;;;;8.07;100.00;93087.03;2102287;28;20032;-84
2023/08/07 03:38:02;;;;;;;2.10;1.67;;;;;;;7.97;100.00;93082.59;2107857;28;20024;-82
2023/08/07 03:39:03;;;;;;;3.13;2.40;;;;;;;7.91;100.00;93084.22;2098674;28;20028;-83
2023/08/07 03:40:05;;;;;;;2.45;1.27;;;;;;;7.92;100.00;93089.13;2093759;28;20492;-83
2023/08/07 03:41:06;;;;;;;6.63;2.15;;;;;;;7.92;100.00;93088.38;2103396;28;20020;-84
2023/08/07 03:42:06;;;;;;;2.17;1.50;;;;;;;8.03;100.00;93092.41;2107087;28;20161;-82
2023/08/07 03:43:07;;;;;;;7.80;2.42;;;;;;;7.97;100.00;93088.69;2099110;28;20029;-81
2023/08/07 03:44:10;;;;;;;2.58;1.50;;;;;;;7.93;100.00;93087.97;2096763;28;20025;-82
2023/08/07 03:45:11;;;;;;;4.95;2.00;;;;;;;7.94;100.00;93088.72;2091094;28;20021;-82
2023/08/07 03:46:12;;;;;;;2.42;1.52;;;;;;;8.29;100.00;93106.88;2107256;28;20031;-82
2023/08/07 03:47:14;;;;;;;1.75;1.48;;;;;;;8.23;100.00;93092.53;2111780;28;20089;-83
2023/08/07 03:48:15;;;;;;;3.58;1.77;;;;;;;8.27;100.00;93093.25;2107637;28;20069;-81
2023/08/07 03:49:16;;;;;;;4.60;1.58;;;;;;;8.15;100.00;93095.69;2106110;28;20434;-82
2023/08/07 03:50:17;;;;;;;1.58;1.48;;;;;;;8.18;100.00;93090.31;2110133;28;20047;-82
2023/08/07 03:51:18;;;;;;;2.05;1.55;;;;;;;8.18;100.00;93092.97;2115483;28;20080;-82
2023/08/07 03:52:19;;;;;;;2.10;1.80;;;;;;;8.27;100.00;93097.81;2111963;28;20110;-82
2023/08/07 03:53:20;;;;;;;3.67;1.30;;;;;;;8.44;100.00;93102.19;2107090;28;20527;-83
2023/08/07 03:54:21;;;;;;;2.70;1.48;;;;;;;8.19;100.00;93091.81;2106389;28;20495;-82
2023/08/07 03:55:22;;;;;;;2.40;1.50;;;;;;;8.10;100.00;93093.47;2100785;28;20024;-83
2023/08/07 03:56:23;;;;;;;4.13;1.67;;;;;;;8.21;100.00;93094.06;2107340;28;20020;-82
2023/08/07 03:57:25;;;;;;;3.35;1.90;;;;;;;8.11;100.00;93100.28;2104004;28;20496;-81
2023/08/07 03:58:26;;;;;;;4.43;1.50;;;;;;;8.04;100.00;93096.59;2106954;28;20346;-82
2023/08/07 03:59:27;;;;;;;1.67;1.40;;;;;;;7.96;100.00;93097.06;2105845;28;20054;-82
2023/08/07 04:00:28;;;;;;;1.65;1.55;;;;;;;8.25;100.00;93100.09;2102022;28;20372;-82
2023/08/07 04:01:31;;;;;;;2.60;1.63;;;;;;;8.15;100.00;93101.00;2107271;28;20158;-83
2023/08/07 04:02:34;;;;;;;3.47;2.13;;;;;;;8.12;100.00;93101.81;2107230;28;20024;-83
2023/08/07 04:03:37;;;;;;;2.25;1.52;;;;;;;8.17;100.00;93107.44;2101981;28;20096;-82
2023/08/07 04:04:38;;;;;;;2.35;1.35;;;;;;;8.20;100.00;93103.97;2090339;28;20025;-82
2023/08/07 04:05:39;;;;;;;1.98;1.48;;;;;;;8.17;100.00;93104.03;2095169;28;20027;-82
2023/08/07 04:06:40;;;;;;;1.98;1.75;;;;;;;8.16;100.00;93099.84;2090835;28;20029;-81
2023/08/07 04:07:40;;;;;;;2.72;1.63;;;;;;;8.03;100.00;93104.94;2099214;28;20245;-82
2023/08/07 04:08:44;;;;;;;2.55;1.80;;;;;;;8.08;100.00;93104.53;2106720;28;20024;-82
2023/08/07 04:09:45;;;;;;;2.38;1.75;;;;;;;8.16;100.00;93097.94;2100248;28;20096;-81
2023/08/07 04:11:04;;;;;;;2.88;1.60;;;;;;;8.14;100.00;93108.25;2106715;28;20530;-83
2023/08/07 04:12:05;;;;;;;1.40;1.30;;;;;;;8.11;100.00;93110.94;2106224;27;20135;-83
2023/08/07 04:13:06;;;;;;;1.73;1.33;;;;;;;8.20;100.00;93109.28;2115264;28;20365;-82
2023/08/07 04:14:07;;;;;;;1.58;1.48;;;;;;;8.27;100.00;93109.22;2108983;28;20038;-82
2023/08/07 04:15:09;;;;;;;2.75;1.58;;;;;;;8.43;100.00;93108.66;2101963;28;20522;-82
2023/08/07 04:16:10;;;;;;;2.42;1.50;;;;;;;8.26;100.00;93115.69;2107146;27;20099;-82
2023/08/07 04:17:11;;;;;;;2.65;1.58;;;;;;;8.17;100.00;93110.13;2103068;28;20021;-82
2023/08/07 04:18:12;;;;;;;3.20;1.60;;;;;;;8.14;100.00;93118.16;2097794;28;20063;-83
2023/08/07 04:19:15;;;;;;;2.90;1.80;;;;;;;8.11;100.00;93110.94;2106569;28;20089;-82
2023/08/07 04:20:16;;;;;;;2.50;1.77;;;;;;;8.06;100.00;93112.16;2107456;28;20020;-83
2023/08/07 04:21:17;;;;;;;1.83;1.50;;;;;;;8.06;100.00;93112.91;2115048;28;20020;-82
2023/08/07 04:22:18;;;;;;;4.13;1.50;;;;;;;7.93;100.00;93114.56;2118662;27;20084;-82
2023/08/07 04:23:19;;;;;;;3.97;1.88;;;;;;;8.02;100.00;93108.78;2106618;28;20024;-81
2023/08/07 04:24:20;;;;;;;4.05;1.67;;;;;;;8.00;100.00;93114.50;2097766;28;20052;-83
2023/08/07 04:25:21;;;;;;;3.10;1.80;;;;;;;7.94;100.00;93115.31;2097214;28;20347;-82
2023/08/07 04:26:23;;;;;;;1.60;1.50;;;;;;;8.01;100.00;93113.34;2098347;28;20032;-82
2023/08/07 04:27:24;;;;;;;3.75;1.60;;;;;;;7.86;100.00;93117.34;2089578;28;20457;-82
2023/08/07 04:28:25;;;;;;;1.90;1.35;;;;;;;7.89;100.00;93113.09;2098347;28;20024;-82
2023/08/07 04:29:26;;;;;;;2.05;1.50;;;;;;;7.96;100.00;93111.13;2106497;28;20043;-83
2023/08/07 04:30:27;;;;;;;2.38;1.55;;;;;;;8.02;100.00;93116.75;2112999;28;20019;-82
2023/08/07 04:31:28;;;;;;;2.10;1.63;;;;;;;7.99;100.00;93118.31;2114882;28;20069;-82
2023/08/07 04:32:30;;;;;;;2.60;1.60;;;;;;;7.94;100.00;93113.41;2103480;28;20458;-82
2023/08/07 04:33:32;;;;;;;1.80;1.42;;;;;;;7.88;100.00;93115.03;2106575;28;20389;-82
2023/08/07 04:34:35;;;;;;;2.00;1.50;;;;;;;7.81;100.00;93120.41;2098096;28;20032;-82
2023/08/07 04:35:36;;;;;;;2.58;1.60;;;;;;;7.74;100.00;93123.16;2092972;28;20488;-83
2023/08/07 04:36:40;;;;;;;3.88;1.50;;;;;;;7.74;100.00;93117.84;2107230;28;20036;-81
2023/08/07 04:37:41;;;;;;;1.90;1.67;;;;;;;7.70;100.00;93111.81;2099899;28;20123;-83
2023/08/07 04:38:42;;;;;;;6.18;1.67;;;;;;;7.77;100.00;93114.38;2098671;28;20054;-82
2023/08/07 04:39:43;;;;;;;2.17;1.60;;;;;;;7.75;100.00;93122.00;2092613;28;20044;-82
2023/08/07 04:40:48;;;;;;;3.50;1.42;;;;;;;7.84;100.00;93114.31;2093239;28;20025;-82
2023/08/07 04:41:50;;;;;;;1.90;1.63;;;;;;;7.80;100.00;93118.91;2099229;28;20027;-82
2023/08/07 04:42:51;;;;;;;4.85;1.60;;;;;;;7.74;100.00;93117.84;2106405;28;20062;-82
2023/08/07 04:43:51;;;;;;;3.42;1.58;;;;;;;7.89;100.00;93121.84;2112672;28;20049;-82
2023/08/07 04:44:52;;;;;;;1.67;1.40;;;;;;;7.86;100.00;93114.69;2105931;28;20032;-83
2023/08/07 04:45:54;;;;;;;4.05;1.30;;;;;;;8.01;100.00;93107.28;2107055;28;20038;-82
2023/08/07 04:46:54;;;;;;;1.65;1.55;;;;;;;8.21;100.00;93112.72;2099989;28;20020;-82
2023/08/07 04:47:55;;;;;;;3.33;1.35;;;;;;;7.97;100.00;93120.63;2102526;28;20533;-82
2023/08/07 04:48:56;;;;;;;4.88;1.60;;;;;;;7.93;100.00;93111.16;2095835;28;20341;-82
2023/08/07 04:49:57;;;;;;;4.05;1.48;;;;;;;7.88;100.00;93111.59;2097824;28;20497;-83
2023/08/07 04:50:59;;;;;;;2.60;1.40;;;;;;;8.03;100.00;93116.38;2105042;28;20153;-82
2023/08/07 04:52:00;;;;;;;2.35;1.33;;;;;;;8.06;100.00;93112.91;2106604;28;20196;-82
2023/08/07 04:53:01;;;;;;;1.50;1.40;;;;;;;8.12;100.00;93120.44;2105661;27;20491;-82